Time;durP1;ratioP1;P1;durP2;ratioP2;P2;SDS_P1;SDS_P2;PMS_P1;PMS_P2;Temp;Humidity;BMP_temperature;BMP_pressure;BME280_temperature;BME280_humidity;BME280_pressure;Samples;Min_cycle;Max_cycle;Signal;HPM_P1;HPM_P2
2021/05/09 00:01:38;;;;;;;9.68;6.13;;;230.50;2252.80;;;;;;5013594;28;20064;-60
2021/05/09 00:04:04;;;;;;;9.18;6.28;;;230.50;2252.80;;;;;;5013593;28;20022;-60
2021/05/09 00:06:29;;;;;;;9.45;6.38;;;230.50;2252.80;;;;;;5013652;28;20084;-57
2021/05/09 00:08:56;;;;;;;10.20;6.53;;;230.40;2252.80;;;;;;5013902;28;20026;-59
2021/05/09 00:11:22;;;;;;;10.90;6.20;;;230.40;2252.80;;;;;;5013532;28;20079;-58
2021/05/09 00:13:48;;;;;;;9.77;6.13;;;230.40;2252.80;;;;;;5013362;28;20022;-61
2021/05/09 00:16:13;;;;;;;9.00;6.13;;;230.40;2252.80;;;;;;5013819;28;20049;-57
2021/05/09 00:18:39;;;;;;;9.90;6.30;;;230.40;2252.80;;;;;;5013737;28;20033;-61
2021/05/09 00:21:05;;;;;;;10.35;6.68;;;230.40;2252.80;;;;;;5013591;28;20026;-57
2021/05/09 00:23:31;;;;;;;10.77;6.70;;;205.70;2252.80;;;;;;5013457;28;20471;-57
2021/05/09 00:25:57;;;;;;;12.10;7.35;;;205.60;2252.80;;;;;;5012782;28;20050;-61
2021/05/09 00:28:22;;;;;;;12.40;7.30;;;205.60;2252.80;;;;;;5015878;28;20533;-58
2021/05/09 00:30:48;;;;;;;10.32;7.32;;;205.60;2252.80;;;;;;5017243;28;20021;-59
2021/05/09 00:33:14;;;;;;;13.10;8.60;;;205.60;2252.80;;;;;;5017195;28;20498;-59
2021/05/09 00:35:40;;;;;;;11.43;7.88;;;205.60;2252.80;;;;;;5025185;28;20033;-60
2021/05/09 00:38:06;;;;;;;12.60;8.15;;;205.60;2252.80;;;;;;5036054;28;20036;-58
2021/05/09 00:40:32;;;;;;;13.50;8.35;;;205.60;2252.80;;;;;;5033191;28;20430;-59
2021/05/09 00:42:58;;;;;;;12.88;8.07;;;205.50;2252.80;;;;;;5036044;28;20391;-57
2021/05/09 00:45:24;;;;;;;11.73;7.88;;;205.40;2252.80;;;;;;5035318;28;20032;-58
2021/05/09 00:47:50;;;;;;;9.68;6.85;;;205.40;2252.80;;;;;;5035703;28;20048;-64
2021/05/09 00:50:18;;;;;;;9.65;6.68;;;205.40;2252.80;;;;;;5035343;28;20021;-58
2021/05/09 00:52:47;;;;;;;10.80;6.93;;;205.30;2252.80;;;;;;5035486;28;20030;-60
2021/05/09 00:55:13;;;;;;;13.48;8.05;;;205.20;2252.80;;;;;;5032675;28;20056;-58
2021/05/09 00:57:41;;;;;;;14.68;8.57;;;205.10;2252.80;;;;;;5035507;28;20040;-57
2021/05/09 01:00:10;;;;;;;17.05;9.15;;;205.00;2252.80;;;;;;5035431;28;20399;-62
2021/05/09 01:02:39;;;;;;;16.15;9.05;;;204.90;2252.80;;;;;;5035152;28;20554;-56
2021/05/09 01:05:05;;;;;;;13.63;8.68;;;204.90;2252.80;;;;;;5035339;28;20032;-61
2021/05/09 01:07:33;;;;;;;17.10;9.20;;;204.90;2252.80;;;;;;5035236;28;20052;-59
2021/05/09 01:09:59;;;;;;;14.20;9.27;;;204.90;2252.80;;;;;;5035441;28;20072;-58
2021/05/09 01:12:25;;;;;;;16.42;9.70;;;204.90;2252.80;;;;;;5035309;28;20025;-57
2021/05/09 01:14:51;;;;;;;13.52;8.90;;;204.90;2252.80;;;;;;5035141;28;20776;-62
2021/05/09 01:17:17;;;;;;;14.07;9.05;;;204.90;2252.80;;;;;;5035350;28;20036;-57
2021/05/09 01:19:43;;;;;;;15.32;8.90;;;204.80;2252.80;;;;;;5034989;28;20021;-57
2021/05/09 01:22:12;;;;;;;18.10;9.60;;;180.10;2252.80;;;;;;5034815;28;20521;-56
2021/05/09 01:24:39;;;;;;;17.13;9.35;;;180.10;2252.80;;;;;;5034952;28;20072;-64
2021/05/09 01:27:06;;;;;;;14.02;8.32;;;180.00;2252.80;;;;;;5034676;28;20037;-63
2021/05/09 01:29:34;;;;;;;14.18;8.90;;;180.10;2252.80;;;;;;5034449;28;20018;-62
2021/05/09 01:32:01;;;;;;;13.98;8.82;;;180.10;2252.80;;;;;;5034857;28;20037;-65
2021/05/09 01:34:33;;;;;;;14.30;8.60;;;204.80;2252.80;;;;;;5034470;28;20032;-58
2021/05/09 01:36:59;;;;;;;13.90;8.90;;;204.80;2252.80;;;;;;5033019;28;20029;-57
2021/05/09 01:39:25;;;;;;;14.35;8.65;;;204.80;2252.80;;;;;;5033891;28;20534;-65
2021/05/09 01:41:51;;;;;;;14.00;9.10;;;204.80;2252.80;;;;;;5034524;28;20120;-58
2021/05/09 01:44:16;;;;;;;14.40;9.07;;;204.90;2252.80;;;;;;5034720;28;20104;-56
2021/05/09 01:46:42;;;;;;;17.42;10.32;;;204.90;2252.80;;;;;;5034758;28;20463;-56
2021/05/09 01:49:08;;;;;;;16.73;9.93;;;204.90;2252.80;;;;;;5034346;28;20033;-57
2021/05/09 01:51:34;;;;;;;17.45;10.50;;;204.90;2252.80;;;;;;5034763;28;20017;-60
2021/05/09 01:53:59;;;;;;;17.88;10.32;;;204.90;2252.80;;;;;;5034084;28;20044;-57
2021/05/09 01:56:25;;;;;;;16.90;9.80;;;204.90;2252.80;;;;;;5034424;28;20086;-66
2021/05/09 01:58:51;;;;;;;15.65;9.27;;;205.00;2252.80;;;;;;5034356;28;20455;-57
2021/05/09 02:01:16;;;;;;;15.90;9.32;;;204.90;2252.80;;;;;;5034149;28;20037;-58
2021/05/09 02:03:42;;;;;;;18.85;11.07;;;204.90;2252.80;;;;;;5034076;28;20067;-56
2021/05/09 02:06:08;;;;;;;19.98;11.60;;;204.90;2252.80;;;;;;5034332;28;20071;-58
2021/05/09 02:08:33;;;;;;;18.27;10.85;;;204.90;2252.80;;;;;;5034305;28;20029;-57
2021/05/09 02:10:59;;;;;;;19.13;10.52;;;205.00;2252.80;;;;;;5033968;28;20084;-56
2021/05/09 02:13:25;;;;;;;14.65;8.63;;;204.90;2252.80;;;;;;5034008;28;20024;-57
2021/05/09 02:15:50;;;;;;;13.10;8.50;;;205.00;2252.80;;;;;;5033900;28;20032;-58
2021/05/09 02:18:16;;;;;;;13.65;8.27;;;205.00;2252.80;;;;;;5033953;28;20664;-58
2021/05/09 02:20:42;;;;;;;17.90;8.52;;;204.90;2252.80;;;;;;5034121;28;20128;-62
2021/05/09 02:23:08;;;;;;;16.23;8.10;;;204.90;2252.80;;;;;;5033768;28;20513;-58
2021/05/09 02:25:33;;;;;;;16.10;8.13;;;204.90;2252.80;;;;;;5033755;28;20031;-59
2021/05/09 02:27:59;;;;;;;13.60;7.80;;;204.80;2252.80;;;;;;5033702;28;20116;-59
2021/05/09 02:30:25;;;;;;;16.38;8.15;;;204.80;2252.80;;;;;;5033726;28;20045;-56
2021/05/09 02:32:50;;;;;;;12.00;7.78;;;180.10;2252.80;;;;;;5033583;28;20025;-56
2021/05/09 02:35:16;;;;;;;13.88;7.70;;;180.10;2252.80;;;;;;5033494;28;20387;-65
2021/05/09 02:37:42;;;;;;;13.25;7.82;;;180.10;2252.80;;;;;;5033715;28;20504;-59
2021/05/09 02:40:08;;;;;;;14.18;8.25;;;180.10;2252.80;;;;;;5033763;28;20053;-61
2021/05/09 02:42:34;;;;;;;15.85;8.43;;;180.10;2252.80;;;;;;5030829;28;20065;-65
2021/05/09 02:45:00;;;;;;;15.32;8.20;;;204.80;2252.80;;;;;;5033445;28;20594;-59
2021/05/09 02:47:29;;;;;;;14.95;8.65;;;204.80;2252.80;;;;;;5033479;28;20032;-56
2021/05/09 02:50:05;;;;;;;14.70;8.23;;;180.10;2252.80;;;;;;5030524;28;20044;-56
2021/05/09 02:52:30;;;;;;;14.75;8.35;;;180.10;2252.80;;;;;;5031971;28;20063;-58
2021/05/09 02:54:56;;;;;;;14.60;7.80;;;204.80;2252.80;;;;;;5033287;28;20092;-55
2021/05/09 02:57:22;;;;;;;13.38;7.68;;;204.80;2252.80;;;;;;5033302;28;20662;-64
2021/05/09 02:59:47;;;;;;;15.88;8.02;;;204.80;2252.80;;;;;;5033366;28;20033;-63
2021/05/09 03:02:13;;;;;;;13.63;7.80;;;204.80;2252.80;;;;;;5032506;28;20083;-65
2021/05/09 03:04:39;;;;;;;17.17;8.27;;;204.80;2252.80;;;;;;5033250;28;20021;-57
2021/05/09 03:07:05;;;;;;;16.38;8.68;;;204.80;2252.80;;;;;;5033311;28;20022;-64
2021/05/09 03:09:31;;;;;;;15.07;8.02;;;204.80;2252.80;;;;;;5032972;28;20017;-57
2021/05/09 03:11:57;;;;;;;14.85;8.10;;;204.80;2252.80;;;;;;5033223;28;20031;-64
2021/05/09 03:14:22;;;;;;;14.50;7.55;;;204.80;2252.80;;;;;;5032932;28;20357;-64
2021/05/09 03:16:48;;;;;;;15.07;8.45;;;204.80;2252.80;;;;;;5033239;28;20036;-56
2021/05/09 03:19:14;;;;;;;15.00;8.10;;;180.10;2252.80;;;;;;5032435;28;20071;-56
2021/05/09 03:21:43;;;;;;;15.88;8.50;;;204.80;2252.80;;;;;;5032990;28;20043;-56
2021/05/09 03:24:13;;;;;;;16.92;8.75;;;180.00;2252.80;;;;;;5032807;28;20021;-56
2021/05/09 03:26:39;;;;;;;16.42;8.38;;;180.10;2252.80;;;;;;5032742;28;20021;-57
2021/05/09 03:29:05;;;;;;;17.95;9.55;;;180.10;2252.80;;;;;;5032774;28;20426;-60
2021/05/09 03:31:32;;;;;;;19.42;9.63;;;204.80;2252.80;;;;;;5032628;28;20491;-58
2021/05/09 03:33:58;;;;;;;20.17;10.60;;;204.80;2252.80;;;;;;5032819;28;20033;-59
2021/05/09 03:36:24;;;;;;;20.80;9.80;;;204.80;2252.80;;;;;;5032605;28;20418;-57
2021/05/09 03:38:50;;;;;;;18.98;8.60;;;204.90;2252.80;;;;;;5032563;28;20033;-56
2021/05/09 03:41:16;;;;;;;18.40;8.52;;;204.80;2252.80;;;;;;5032714;28;20025;-64
2021/05/09 03:43:42;;;;;;;19.42;8.52;;;204.80;2252.80;;;;;;5032464;28;20038;-59
2021/05/09 03:46:08;;;;;;;15.90;8.00;;;204.90;2252.80;;;;;;5032353;28;20080;-58
2021/05/09 03:48:34;;;;;;;17.77;8.02;;;204.90;2252.80;;;;;;5033615;28;20090;-56
2021/05/09 03:51:00;;;;;;;16.80;7.75;;;204.90;2252.80;;;;;;5033433;28;20100;-58
2021/05/09 03:53:28;;;;;;;18.55;7.45;;;204.90;2252.80;;;;;;5032424;28;20068;-57
2021/05/09 03:55:54;;;;;;;16.13;7.28;;;204.90;2227.20;;;;;;5033556;28;20041;-58
2021/05/09 03:58:19;;;;;;;15.02;7.22;;;205.00;2227.20;;;;;;5033603;28;20467;-57
2021/05/09 04:00:46;;;;;;;15.73;7.50;;;205.00;2201.60;;;;;;5033338;28;20487;-57
2021/05/09 04:03:21;;;;;;;16.77;7.20;;;205.10;2201.60;;;;;;5036131;28;20068;-59
2021/05/09 04:05:51;;;;;;;16.05;7.90;;;205.10;2201.60;;;;;;5037583;28;20025;-58
2021/05/09 04:08:22;;;;;;;17.17;7.72;;;205.10;2176.00;;;;;;5037365;28;20033;-56
2021/05/09 04:10:49;;;;;;;18.30;7.35;;;205.10;2176.00;;;;;;5037743;28;20410;-58
2021/05/09 04:13:15;;;;;;;16.60;7.25;;;205.20;2201.60;;;;;;5037377;28;20104;-57
2021/05/09 04:15:41;;;;;;;15.13;6.93;;;205.10;2201.60;;;;;;5037225;28;20114;-58
2021/05/09 04:18:07;;;;;;;15.77;7.57;;;205.20;2201.60;;;;;;5037318;28;20029;-57
2021/05/09 04:20:33;;;;;;;17.30;7.85;;;205.30;2201.60;;;;;;5037185;28;20044;-60
2021/05/09 04:23:16;;;;;;;18.33;8.40;;;205.30;2176.00;;;;;;5037107;28;20037;-56
2021/05/09 04:25:47;;;;;;;16.98;7.50;;;205.40;2201.60;;;;;;5037048;28;20125;-59
2021/05/09 04:28:13;;;;;;;16.80;7.70;;;205.50;2201.60;;;;;;5034785;28;20029;-60
2021/05/09 04:30:38;;;;;;;16.20;7.63;;;205.50;2201.60;;;;;;5035154;28;20036;-56
2021/05/09 04:33:05;;;;;;;17.90;8.13;;;205.60;2201.60;;;;;;5036516;28;20065;-60
2021/05/09 04:35:32;;;;;;;18.63;8.43;;;205.60;2201.60;;;;;;5034590;28;20025;-56
2021/05/09 04:38:01;;;;;;;17.42;8.93;;;205.70;2201.60;;;;;;5034764;28;20507;-57
2021/05/09 04:40:29;;;;;;;19.60;10.10;;;230.40;2227.20;;;;;;5032525;28;20033;-56
2021/05/09 04:42:56;;;;;;;22.13;11.25;;;230.40;2227.20;;;;;;5035011;28;20044;-58
2021/05/09 04:45:22;;;;;;;23.70;11.82;;;230.40;2227.20;;;;;;5034969;28;20025;-57
2021/05/09 04:47:48;;;;;;;23.60;11.90;;;230.40;2227.20;;;;;;5034945;28;20029;-57
2021/05/09 04:50:14;;;;;;;30.65;13.82;;;230.50;2227.20;;;;;;5036248;28;20478;-58
2021/05/09 04:52:40;;;;;;;38.55;17.55;;;230.60;2252.80;;;;;;5034905;28;20063;-60
2021/05/09 04:55:07;;;;;;;48.85;24.17;;;230.60;2252.80;;;;;;5034766;28;20021;-58
2021/05/09 04:57:34;;;;;;;62.88;29.77;;;230.90;2252.80;;;;;;5036255;28;20036;-63
2021/05/09 05:00:01;;;;;;;57.55;27.90;;;230.80;2252.80;;;;;;5034225;28;20539;-59
2021/05/09 05:02:27;;;;;;;47.38;25.35;;;230.80;2227.20;;;;;;5035238;28;20061;-59
2021/05/09 05:04:53;;;;;;;50.60;24.70;;;230.80;2227.20;;;;;;5036254;28;20048;-59
2021/05/09 05:07:18;;;;;;;45.08;22.80;;;230.80;2252.80;;;;;;5028782;28;20041;-61
2021/05/09 05:09:44;;;;;;;45.88;21.98;;;230.90;2252.80;;;;;;5035225;28;20165;-60
2021/05/09 05:12:10;;;;;;;40.28;21.65;;;230.90;2252.80;;;;;;5035024;28;20024;-57
2021/05/09 05:14:36;;;;;;;41.05;20.50;;;231.00;2252.80;;;;;;5033929;28;20415;-55
2021/05/09 05:17:02;;;;;;;39.90;19.90;;;231.00;2252.80;;;;;;5034759;28;20422;-59
2021/05/09 05:19:28;;;;;;;38.75;20.27;;;231.10;2252.80;;;;;;5034825;28;20017;-57
2021/05/09 05:21:53;;;;;;;35.40;17.45;;;231.20;2252.80;;;;;;5034789;28;20083;-56
2021/05/09 05:24:19;;;;;;;32.80;17.08;;;231.30;2252.80;;;;;;5034587;28;20018;-58
2021/05/09 05:26:45;;;;;;;30.23;14.77;;;256.10;2252.80;;;;;;5035017;28;20087;-57
2021/05/09 05:29:11;;;;;;;29.05;14.85;;;256.20;2252.80;;;;;;5032973;28;20517;-55
2021/05/09 05:31:37;;;;;;;30.88;13.77;;;256.40;2252.80;;;;;;5035413;28;20033;-56
2021/05/09 05:34:03;;;;;;;25.75;12.93;;;256.50;2252.80;;;;;;5035520;28;20029;-58
2021/05/09 05:36:31;;;;;;;27.92;13.07;;;256.70;2252.80;;;;;;5035472;28;20033;-59
2021/05/09 05:39:00;;;;;;;27.80;13.73;;;256.80;2252.80;;;;;;5035314;28;20471;-59
2021/05/09 05:41:26;;;;;;;23.52;11.20;;;281.60;2278.40;;;;;;5035713;28;20423;-56
2021/05/09 05:43:52;;;;;;;25.70;12.95;;;281.60;2150.40;;;;;;5035963;28;20029;-60
2021/05/09 05:46:18;;;;;;;27.35;12.40;;;281.80;2124.80;;;;;;5035834;28;20456;-57
2021/05/09 05:48:43;;;;;;;26.75;12.93;;;281.90;2124.80;;;;;;5035659;28;20068;-57
2021/05/09 05:51:09;;;;;;;27.02;12.50;;;282.10;2124.80;;;;;;5035664;28;20036;-58
2021/05/09 05:53:35;;;;;;;27.75;14.63;;;282.20;2124.80;;;;;;5035067;28;20025;-57
2021/05/09 05:56:01;;;;;;;25.17;13.63;;;282.40;2150.40;;;;;;5028634;28;20042;-58
2021/05/09 05:58:26;;;;;;;29.25;14.88;;;282.50;2099.20;;;;;;5034676;28;20098;-57
2021/05/09 06:00:52;;;;;;;26.27;13.52;;;307.20;2099.20;;;;;;5034460;28;20491;-56
2021/05/09 06:03:18;;;;;;;30.77;14.70;;;307.40;2022.40;;;;;;5032193;28;20123;-62
2021/05/09 06:05:47;;;;;;;30.33;14.75;;;307.50;1996.80;;;;;;5035221;28;20415;-58
2021/05/09 06:08:13;;;;;;;28.80;14.13;;;307.60;1971.20;;;;;;5034968;28;20033;-60
2021/05/09 06:10:39;;;;;;;26.30;13.90;;;307.70;1920.00;;;;;;5034711;28;20043;-57
2021/05/09 06:13:05;;;;;;;29.35;14.20;;;307.80;1971.20;;;;;;5035171;28;20033;-61
2021/05/09 06:15:30;;;;;;;24.83;13.65;;;308.00;1971.20;;;;;;5034718;28;20105;-63
2021/05/09 06:17:56;;;;;;;27.75;13.40;;;308.00;1894.40;;;;;;5034771;28;20108;-56
2021/05/09 06:20:22;;;;;;;25.52;13.55;;;332.80;1920.00;;;;;;5034963;28;20036;-59
2021/05/09 06:22:48;;;;;;;25.42;12.13;;;332.90;1971.20;;;;;;5035153;28;20056;-59
2021/05/09 06:25:14;;;;;;;21.70;10.88;;;333.00;1894.40;;;;;;5034820;28;20467;-57
2021/05/09 06:27:43;;;;;;;22.90;10.85;;;333.10;1817.60;;;;;;5034644;28;20037;-60
2021/05/09 06:30:09;;;;;;;19.83;9.68;;;333.30;1843.20;;;;;;5034878;28;20041;-57
2021/05/09 06:32:34;;;;;;;17.95;9.52;;;333.40;1766.40;;;;;;5034640;28;20112;-58
2021/05/09 06:35:00;;;;;;;18.17;9.05;;;333.50;1792.00;;;;;;5034892;28;20116;-62
2021/05/09 06:37:27;;;;;;;19.05;8.45;;;333.70;1715.20;;;;;;5034679;28;20430;-59
2021/05/09 06:39:53;;;;;;;17.00;8.45;;;333.70;1689.60;;;;;;5034622;28;20025;-57
2021/05/09 06:42:19;;;;;;;18.58;8.02;;;358.40;1638.40;;;;;;5034526;28;20045;-57
2021/05/09 06:44:49;;;;;;;16.77;8.60;;;358.60;1638.40;;;;;;5034555;28;20025;-63
2021/05/09 06:47:15;;;;;;;18.35;8.35;;;358.70;1664.00;;;;;;5034746;28;20067;-57
2021/05/09 06:49:41;;;;;;;19.70;8.73;;;358.80;1612.80;;;;;;5034196;28;20424;-57
2021/05/09 06:52:07;;;;;;;18.08;8.20;;;358.90;1612.80;;;;;;5033962;28;20033;-57
2021/05/09 06:54:34;;;;;;;15.98;7.43;;;359.10;1561.60;;;;;;5034390;28;20086;-56
2021/05/09 06:57:02;;;;;;;15.75;7.63;;;359.20;1561.60;;;;;;5033292;28;20033;-61
2021/05/09 06:59:29;;;;;;;17.45;7.18;;;359.30;1484.80;;;;;;5034348;28;20494;-60
2021/05/09 07:01:54;;;;;;;18.45;7.85;;;384.30;1459.20;;;;;;5033247;28;20514;-61
2021/05/09 07:04:20;;;;;;;15.15;7.63;;;384.20;1459.20;;;;;;5034039;28;20021;-57
2021/05/09 07:06:46;;;;;;;15.48;7.80;;;384.30;1408.00;;;;;;5034297;28;20056;-61
2021/05/09 07:09:11;;;;;;;16.27;7.30;;;384.40;1433.60;;;;;;5034265;28;20026;-63
2021/05/09 07:11:38;;;;;;;17.17;7.50;;;384.60;1433.60;;;;;;5034246;28;20517;-61
2021/05/09 07:14:04;;;;;;;18.00;8.10;;;384.60;1331.20;;;;;;5034052;28;20409;-57
2021/05/09 07:16:32;;;;;;;17.50;7.68;;;384.60;1331.20;;;;;;5033974;28;20486;-60
2021/05/09 07:18:59;;;;;;;18.23;7.60;;;384.60;1280.00;;;;;;5033762;28;20044;-58
2021/05/09 07:21:31;;;;;;;14.57;6.75;;;384.80;1305.60;;;;;;5033664;28;20025;-57
2021/05/09 07:23:57;;;;;;;14.07;7.15;;;384.90;1356.80;;;;;;5034016;28;20067;-60
2021/05/09 07:26:23;;;;;;;17.48;7.60;;;409.60;1331.20;;;;;;5033820;28;20017;-61
2021/05/09 07:28:49;;;;;;;17.70;7.32;;;409.70;1331.20;;;;;;5032862;28;20022;-59
2021/05/09 07:31:14;;;;;;;17.45;8.10;;;409.70;1305.60;;;;;;5033802;28;20033;-63
2021/05/09 07:33:41;;;;;;;20.83;8.15;;;410.00;1356.80;;;;;;5033389;28;20086;-58
2021/05/09 07:36:07;;;;;;;17.58;7.43;;;410.10;1356.80;;;;;;5033532;28;20025;-59
2021/05/09 07:38:34;;;;;;;16.92;7.50;;;410.20;1305.60;;;;;;5033234;28;20056;-63
2021/05/09 07:41:00;;;;;;;16.60;7.47;;;410.30;1305.60;;;;;;5033936;28;20525;-58
2021/05/09 07:43:26;;;;;;;18.00;8.27;;;410.40;1305.60;;;;;;5033352;28;20148;-58
2021/05/09 07:45:52;;;;;;;16.95;7.35;;;410.50;1305.60;;;;;;5033643;28;20026;-61
2021/05/09 07:48:18;;;;;;;20.13;8.38;;;435.20;1254.40;;;;;;5033771;28;20041;-58
2021/05/09 07:50:44;;;;;;;19.77;9.13;;;435.40;1228.80;;;;;;5033676;28;20017;-63
2021/05/09 07:53:13;;;;;;;17.33;7.85;;;435.40;1177.60;;;;;;5032549;28;20390;-57
2021/05/09 07:55:40;;;;;;;14.90;7.93;;;435.50;1203.20;;;;;;5033711;28;20026;-66
2021/05/09 07:58:19;;;;;;;14.70;7.63;;;435.40;1177.60;;;;;;5033624;28;20386;-57
2021/05/09 08:00:47;;;;;;;17.00;8.20;;;435.60;1254.40;;;;;;5033270;28;20045;-58
2021/05/09 08:03:13;;;;;;;18.33;9.15;;;435.60;1152.00;;;;;;5033634;28;20109;-59
2021/05/09 08:05:39;;;;;;;15.77;7.97;;;435.90;1177.60;;;;;;5033172;28;20032;-58
2021/05/09 08:08:05;;;;;;;14.43;6.82;;;436.10;1177.60;;;;;;5033145;28;20479;-63
2021/05/09 08:10:39;;;;;;;16.58;7.28;;;436.10;1152.00;;;;;;5033617;28;20030;-63
2021/05/09 08:13:07;;;;;;;15.65;6.68;;;460.80;1177.60;;;;;;5032847;28;20132;-61
2021/05/09 08:15:34;;;;;;;19.55;7.50;;;461.00;1126.40;;;;;;5032976;28;20545;-57
2021/05/09 08:18:00;;;;;;;16.67;7.68;;;461.10;1075.20;;;;;;5033512;28;20033;-60
2021/05/09 08:20:27;;;;;;;17.08;7.55;;;461.10;1075.20;;;;;;5032037;28;20426;-57
2021/05/09 08:22:53;;;;;;;15.80;6.90;;;461.30;1075.20;;;;;;5033209;28;20037;-60
2021/05/09 08:25:19;;;;;;;15.48;6.55;;;461.60;1100.80;;;;;;5033441;28;20071;-56
2021/05/09 08:27:46;;;;;;;14.20;6.05;;;461.70;1049.60;;;;;;5033325;28;20032;-59
2021/05/09 08:30:16;;;;;;;17.85;6.97;;;461.70;1024.00;;;;;;5033114;28;20044;-60
2021/05/09 08:32:42;;;;;;;15.32;6.72;;;486.40;1024.00;;;;;;5033382;28;20032;-57
2021/05/09 08:35:10;;;;;;;11.40;5.00;;;486.40;1024.00;;;;;;5032682;28;20105;-62
2021/05/09 08:37:37;;;;;;;12.77;5.63;;;486.40;921.60;;;;;;5033196;28;20034;-59
2021/05/09 08:40:05;;;;;;;10.82;5.43;;;486.40;972.80;;;;;;5033247;28;20469;-60
2021/05/09 08:42:30;;;;;;;11.43;5.68;;;486.70;998.40;;;;;;5032802;28;20052;-59
2021/05/09 08:44:56;;;;;;;14.38;6.43;;;486.60;1024.00;;;;;;5032995;28;20367;-59
2021/05/09 08:47:22;;;;;;;12.90;5.72;;;487.00;998.40;;;;;;5032126;28;20040;-59
2021/05/09 08:49:49;;;;;;;12.75;5.45;;;487.20;998.40;;;;;;5036231;28;20049;-58
2021/05/09 08:52:19;;;;;;;11.05;4.47;;;487.10;921.60;;;;;;5036218;28;20029;-60
2021/05/09 08:54:46;;;;;;;12.15;5.47;;;461.60;921.60;;;;;;5034319;28;20104;-59
2021/05/09 08:57:12;;;;;;;12.73;5.28;;;486.90;947.20;;;;;;5036319;28;20352;-62
2021/05/09 08:59:38;;;;;;;11.88;4.75;;;487.10;921.60;;;;;;5035924;28;20017;-58
2021/05/09 09:02:04;;;;;;;12.25;4.53;;;487.10;947.20;;;;;;5028973;28;20095;-58
2021/05/09 09:04:46;;;;;;;12.85;5.15;;;487.20;896.00;;;;;;5036193;28;20492;-60
2021/05/09 09:07:13;;;;;;;11.05;4.60;;;487.20;870.40;;;;;;5034155;28;20036;-58
2021/05/09 09:09:43;;;;;;;13.00;5.20;;;487.20;870.40;;;;;;5035718;28;20029;-60
2021/05/09 09:12:09;;;;;;;11.68;4.72;;;487.30;870.40;;;;;;5035756;28;20029;-61
2021/05/09 09:14:50;;;;;;;11.98;4.45;;;512.00;896.00;;;;;;5035531;28;20049;-61
2021/05/09 09:17:17;;;;;;;11.40;4.47;;;512.10;870.40;;;;;;5035186;28;20029;-59
2021/05/09 09:20:06;;;;;;;8.60;3.97;;;512.30;844.80;;;;;;5035320;28;20467;-59
2021/05/09 09:22:57;;;;;;;11.50;4.43;;;512.50;947.20;;;;;;5023161;28;20454;-64
2021/05/09 09:25:28;;;;;;;8.65;3.95;;;512.40;793.60;;;;;;5003079;28;20039;-58
2021/05/09 09:27:55;;;;;;;8.93;4.60;;;512.40;870.40;;;;;;5007790;28;20093;-58
2021/05/09 09:30:25;;;;;;;10.32;4.50;;;512.40;844.80;;;;;;5013785;28;20580;-59
2021/05/09 09:33:14;;;;;;;10.20;4.93;;;512.80;870.40;;;;;;5005224;28;20038;-59
2021/05/09 09:35:42;;;;;;;9.45;4.95;;;537.70;844.80;;;;;;5007056;28;20049;-58
2021/05/09 09:38:27;;;;;;;10.95;5.05;;;537.60;844.80;;;;;;5008261;28;20036;-58
2021/05/09 09:41:28;;;;;;;8.90;4.30;;;512.90;793.60;;;;;;5007292;28;20068;-59
2021/05/09 09:44:08;;;;;;;9.15;4.65;;;537.90;870.40;;;;;;4985999;28;20065;-60
2021/05/09 09:46:38;;;;;;;10.20;4.90;;;537.60;819.20;;;;;;4973562;28;20026;-62
2021/05/09 09:49:28;;;;;;;10.13;4.78;;;537.80;844.80;;;;;;4987849;28;20100;-59
2021/05/09 09:51:56;;;;;;;10.02;4.60;;;538.00;793.60;;;;;;4990145;28;20121;-61
2021/05/09 09:54:31;;;;;;;9.23;4.30;;;537.90;793.60;;;;;;4990519;28;20575;-59
2021/05/09 09:56:57;;;;;;;10.90;5.32;;;537.90;768.00;;;;;;4974131;28;20030;-60
2021/05/09 09:59:23;;;;;;;10.10;4.80;;;538.00;793.60;;;;;;4983584;28;20483;-61
2021/05/09 10:01:48;;;;;;;9.02;4.88;;;538.20;768.00;;;;;;4984298;28;20238;-60
2021/05/09 10:04:14;;;;;;;8.95;4.63;;;537.90;793.60;;;;;;4990092;28;20034;-60
2021/05/09 10:06:40;;;;;;;8.18;4.53;;;538.20;768.00;;;;;;4987488;28;20022;-59
2021/05/09 10:09:08;;;;;;;10.65;5.90;;;538.00;768.00;;;;;;4988737;28;20512;-61
2021/05/09 10:11:35;;;;;;;14.80;8.70;;;538.20;768.00;;;;;;4982380;28;20038;-60
2021/05/09 10:14:02;;;;;;;11.52;4.03;;;538.30;742.40;;;;;;4989857;28;20019;-63
2021/05/09 10:16:29;;;;;;;8.52;4.57;;;538.30;793.60;;;;;;4989833;28;20536;-59
2021/05/09 10:19:00;;;;;;;8.48;4.20;;;538.10;768.00;;;;;;5028502;28;20033;-60
2021/05/09 10:21:27;;;;;;;8.10;4.40;;;538.30;742.40;;;;;;5031604;28;20017;-59
2021/05/09 10:24:24;;;;;;;11.88;5.97;;;538.30;742.40;;;;;;5031339;28;20387;-59
2021/05/09 10:26:53;;;;;;;14.02;9.30;;;538.40;716.80;;;;;;5030017;28;20057;-61
2021/05/09 10:29:35;;;;;;;14.25;8.27;;;563.20;742.40;;;;;;5028873;28;20063;-60
2021/05/09 10:32:23;;;;;;;8.70;4.30;;;563.40;768.00;;;;;;5032233;28;20029;-60
2021/05/09 10:34:57;;;;;;;10.05;4.65;;;563.60;793.60;;;;;;5031594;28;20037;-64
2021/05/09 10:37:38;;;;;;;8.05;3.80;;;563.60;742.40;;;;;;5031039;28;20025;-59
2021/05/09 10:40:17;;;;;;;10.75;6.53;;;563.60;742.40;;;;;;5018085;28;20048;-65
2021/05/09 10:42:43;;;;;;;6.93;3.40;;;564.00;716.80;;;;;;5014045;28;20392;-59
2021/05/09 10:45:09;;;;;;;7.75;3.53;;;564.10;742.40;;;;;;5014860;28;20025;-60
2021/05/09 10:47:34;;;;;;;7.63;3.42;;;564.00;691.20;;;;;;5028388;28;20076;-64
2021/05/09 10:50:18;;;;;;;21.27;13.52;;;564.00;716.80;;;;;;5031033;28;20022;-59
2021/05/09 10:52:46;;;;;;;7.55;3.90;;;564.00;742.40;;;;;;5031166;28;20049;-58
2021/05/09 10:55:43;;;;;;;8.98;4.00;;;564.10;742.40;;;;;;5033917;28;20036;-59
2021/05/09 10:58:14;;;;;;;6.45;3.50;;;564.10;716.80;;;;;;5033817;28;20052;-59
2021/05/09 11:00:55;;;;;;;5.75;3.20;;;588.80;691.20;;;;;;5033398;28;20060;-59
2021/05/09 11:03:36;;;;;;;6.93;3.63;;;588.90;742.40;;;;;;5033472;28;20033;-60
2021/05/09 11:06:09;;;;;;;45.00;30.83;;;589.00;665.60;;;;;;5033616;28;20029;-61
2021/05/09 11:08:43;;;;;;;18.63;11.68;;;589.10;691.20;;;;;;5031725;28;20419;-59
2021/05/09 11:11:34;;;;;;;12.27;8.30;;;589.40;640.00;;;;;;5033188;28;20193;-60
2021/05/09 11:14:04;;;;;;;11.40;7.03;;;589.40;614.40;;;;;;5030844;28;20037;-60
2021/05/09 11:16:33;;;;;;;5.20;2.90;;;589.60;640.00;;;;;;5031732;28;20037;-59
2021/05/09 11:19:05;;;;;;;6.90;3.33;;;589.60;640.00;;;;;;5030533;28;20069;-64
2021/05/09 11:21:38;;;;;;;5.55;2.90;;;589.60;691.20;;;;;;5031427;28;20026;-65
2021/05/09 11:24:11;;;;;;;5.85;2.83;;;589.30;665.60;;;;;;5030495;28;20037;-60
2021/05/09 11:26:42;;;;;;;5.20;2.60;;;589.10;691.20;;;;;;5031072;28;20545;-59
2021/05/09 11:29:20;;;;;;;6.05;3.05;;;589.40;742.40;;;;;;5031129;28;20029;-62
2021/05/09 11:31:50;;;;;;;5.88;3.22;;;589.50;716.80;;;;;;5029011;28;20044;-61
2021/05/09 11:34:17;;;;;;;6.18;3.03;;;589.50;614.40;;;;;;5029252;28;20030;-60
2021/05/09 11:36:46;;;;;;;5.63;3.35;;;589.40;614.40;;;;;;5031364;28;20025;-61
2021/05/09 11:39:20;;;;;;;5.28;2.58;;;589.60;588.80;;;;;;5031308;28;20418;-61
2021/05/09 11:41:59;;;;;;;9.45;6.43;;;589.70;614.40;;;;;;5012050;28;20033;-63
2021/05/09 11:44:33;;;;;;;4.95;3.00;;;614.40;588.80;;;;;;5025982;28;20041;-59
2021/05/09 11:47:02;;;;;;;5.93;2.70;;;614.60;640.00;;;;;;5017557;28;20034;-59
2021/05/09 11:49:33;;;;;;;5.78;3.08;;;614.50;614.40;;;;;;5028496;28;20447;-60
2021/05/09 11:52:19;;;;;;;4.90;3.00;;;614.60;588.80;;;;;;5045230;28;20034;-59
2021/05/09 11:55:00;;;;;;;5.78;3.33;;;614.70;640.00;;;;;;5032944;28;20113;-59
2021/05/09 11:57:27;;;;;;;4.35;2.75;;;614.70;640.00;;;;;;5031769;28;20036;-59
2021/05/09 11:59:57;;;;;;;7.85;5.15;;;614.60;665.60;;;;;;5032991;28;20048;-61
2021/05/09 12:02:32;;;;;;;4.47;2.50;;;614.70;640.00;;;;;;5032538;28;20069;-58
2021/05/09 12:05:11;;;;;;;6.05;2.63;;;614.80;537.60;;;;;;5031616;28;20065;-59
2021/05/09 12:08:09;;;;;;;5.80;3.10;;;614.90;563.20;;;;;;5031943;28;20021;-59
2021/05/09 12:10:41;;;;;;;4.97;2.30;;;615.00;614.40;;;;;;5010887;28;20100;-58
2021/05/09 12:13:09;;;;;;;4.63;2.17;;;614.90;640.00;;;;;;5011673;28;20427;-60
2021/05/09 12:15:36;;;;;;;5.60;2.53;;;615.00;640.00;;;;;;5011138;28;20033;-59
2021/05/09 12:18:03;;;;;;;4.47;2.47;;;614.90;588.80;;;;;;5010881;28;20106;-58